createdAt,value
2022-11-14T00:01:07.507Z,1028.62
2022-11-14T00:03:34.484Z,1028.70
2022-11-14T00:06:05.952Z,1028.69
2022-11-14T00:08:35.242Z,1028.63
2022-11-14T00:11:02.168Z,1028.59
2022-11-14T00:13:29.143Z,1028.61
2022-11-14T00:15:55.923Z,1028.65
2022-11-14T00:18:23.754Z,1028.74
2022-11-14T00:20:51.922Z,1028.71
2022-11-14T00:23:19.349Z,1028.68
2022-11-14T00:25:47.951Z,1028.68
2022-11-14T00:28:14.744Z,1028.62
2022-11-14T00:30:41.753Z,1028.72
2022-11-14T00:33:08.479Z,1028.63
2022-11-14T00:35:35.325Z,1028.73
2022-11-14T00:38:02.042Z,1028.68
2022-11-14T00:40:32.780Z,1028.80
2022-11-14T00:43:00.900Z,1028.72
2022-11-14T00:45:28.912Z,1028.78
2022-11-14T00:47:55.706Z,1028.83
2022-11-14T00:50:22.698Z,1028.86
2022-11-14T00:52:49.469Z,1028.82
2022-11-14T00:55:18.526Z,1028.78
2022-11-14T00:57:45.313Z,1028.79
2022-11-14T01:00:14.950Z,1028.77
2022-11-14T01:02:41.852Z,1028.81
2022-11-14T01:05:08.913Z,1028.81
2022-11-14T01:07:35.917Z,1028.77
2022-11-14T01:10:02.821Z,1028.77
2022-11-14T01:12:29.806Z,1028.85
2022-11-14T01:14:56.536Z,1028.76
2022-11-14T01:17:24.843Z,1028.73
2022-11-14T01:19:51.602Z,1028.61
2022-11-14T01:22:18.589Z,1028.60
2022-11-14T01:24:46.387Z,1028.55
2022-11-14T01:27:13.293Z,1028.62
2022-11-14T01:29:40.141Z,1028.58
2022-11-14T01:32:06.984Z,1028.64
2022-11-14T01:34:35.181Z,1028.52
2022-11-14T01:37:02.207Z,1028.40
2022-11-14T01:39:29.024Z,1028.36
2022-11-14T01:41:55.824Z,1028.28
2022-11-14T01:44:39.725Z,1028.33
2022-11-14T01:47:06.817Z,1028.36
2022-11-14T01:49:38.136Z,1028.31
2022-11-14T01:52:08.901Z,1028.26
2022-11-14T01:54:38.248Z,1028.26
2022-11-14T01:57:07.528Z,1028.31
2022-11-14T01:59:37.902Z,1028.37
2022-11-14T02:02:08.729Z,1028.39
2022-11-14T02:04:41.073Z,1028.26
2022-11-14T02:07:09.258Z,1028.18
2022-11-14T02:09:38.759Z,1028.14
2022-11-14T02:12:08.801Z,1028.22
2022-11-14T02:14:38.207Z,1028.19
2022-11-14T02:17:28.345Z,1028.19
2022-11-14T02:20:00.802Z,1028.09
2022-11-14T02:22:32.108Z,1028.06
2022-11-14T02:25:00.070Z,1028.14
2022-11-14T02:27:26.994Z,1028.01
2022-11-14T02:29:53.856Z,1028.01
2022-11-14T02:32:20.578Z,1028.06
2022-11-14T02:34:48.651Z,1028.10
2022-11-14T02:37:15.381Z,1028.05
2022-11-14T02:39:43.543Z,1028.05
2022-11-14T02:42:10.313Z,1028.09
2022-11-14T02:44:37.175Z,1028.12
2022-11-14T02:47:05.414Z,1028.12
2022-11-14T02:49:32.184Z,1028.02
2022-11-14T02:51:59.181Z,1027.99
2022-11-14T02:54:25.977Z,1028.00
2022-11-14T02:56:54.313Z,1027.89
2022-11-14T02:59:21.045Z,1027.86
2022-11-14T03:01:48.041Z,1027.90
2022-11-14T03:04:14.858Z,1027.87
2022-11-14T03:06:41.767Z,1027.86
2022-11-14T03:09:08.536Z,1027.85
2022-11-14T03:11:35.654Z,1027.99
2022-11-14T03:14:03.799Z,1027.94
2022-11-14T03:16:30.765Z,1027.90
2022-11-14T03:18:57.526Z,1027.93
2022-11-14T03:21:24.558Z,1027.73
2022-11-14T03:23:51.556Z,1027.72
2022-11-14T03:26:18.566Z,1027.80
2022-11-14T03:28:45.488Z,1027.85
2022-11-14T03:31:14.556Z,1027.75
2022-11-14T03:33:41.636Z,1027.81
2022-11-14T03:36:08.578Z,1027.82
2022-11-14T03:38:35.718Z,1027.87
2022-11-14T03:41:02.663Z,1027.95
2022-11-14T03:43:31.799Z,1027.86
2022-11-14T03:45:58.858Z,1027.74
2022-11-14T03:48:27.905Z,1027.75
2022-11-14T03:50:55.298Z,1027.80
2022-11-14T03:53:22.905Z,1027.86
2022-11-14T03:55:49.636Z,1027.92
2022-11-14T03:58:16.559Z,1028.00
2022-11-14T04:00:43.566Z,1028.02
2022-11-14T04:03:10.510Z,1027.91
2022-11-14T04:05:38.850Z,1027.92
2022-11-14T04:08:05.769Z,1028.05
2022-11-14T04:10:32.742Z,1028.06
2022-11-14T04:12:59.549Z,1028.11
2022-11-14T04:15:26.526Z,1028.02
2022-11-14T04:17:53.261Z,1027.96
2022-11-14T04:20:20.106Z,1028.05
2022-11-14T04:22:48.228Z,1028.01
2022-11-14T04:25:15.134Z,1027.99
2022-11-14T04:27:41.884Z,1028.01
2022-11-14T04:30:10.646Z,1028.00
2022-11-14T04:32:37.404Z,1028.01
2022-11-14T04:35:05.758Z,1028.01
2022-11-14T04:37:32.575Z,1027.95
2022-11-14T04:40:00.983Z,1028.06
2022-11-14T04:42:27.745Z,1028.00
2022-11-14T04:44:54.745Z,1027.93
2022-11-14T04:47:21.592Z,1027.91
2022-11-14T04:49:48.381Z,1027.92
2022-11-14T04:52:15.278Z,1027.87
2022-11-14T04:54:42.043Z,1027.84
2022-11-14T04:57:10.200Z,1027.76
2022-11-14T04:59:36.979Z,1027.94
2022-11-14T05:02:03.981Z,1027.80
2022-11-14T05:04:30.738Z,1027.76
2022-11-14T05:06:57.725Z,1027.77
2022-11-14T05:09:24.656Z,1027.73
2022-11-14T05:11:51.546Z,1027.83
2022-11-14T05:14:19.806Z,1027.86
2022-11-14T05:16:46.776Z,1027.78
2022-11-14T05:19:13.563Z,1027.73
2022-11-14T05:21:40.455Z,1027.71
2022-11-14T05:24:07.498Z,1027.78
2022-11-14T05:26:34.353Z,1027.79
2022-11-14T05:29:01.197Z,1027.88
2022-11-14T05:31:29.308Z,1027.88
2022-11-14T05:33:56.215Z,1027.92
2022-11-14T05:36:24.050Z,1027.91
2022-11-14T05:38:50.997Z,1028.04
2022-11-14T05:41:19.076Z,1027.89
2022-11-14T05:43:45.951Z,1028.04
2022-11-14T05:46:14.871Z,1028.03
2022-11-14T05:48:43.438Z,1027.99
2022-11-14T05:51:11.676Z,1027.97
2022-11-14T05:53:39.011Z,1027.98
2022-11-14T05:56:07.745Z,1028.09
2022-11-14T05:58:35.577Z,1027.99
2022-11-14T06:01:04.515Z,1027.78
2022-11-14T06:03:33.046Z,1027.74
2022-11-14T06:06:02.304Z,1027.86
2022-11-14T06:08:30.984Z,1027.90
2022-11-14T06:11:02.665Z,1027.95
2022-11-14T06:13:29.666Z,1027.98
2022-11-14T06:15:59.219Z,1027.96
2022-11-14T06:18:25.958Z,1028.01
2022-11-14T06:20:53.816Z,1028.05
2022-11-14T06:23:24.782Z,1028.08
2022-11-14T06:25:53.038Z,1028.03
2022-11-14T06:28:19.788Z,1028.15
2022-11-14T06:30:46.513Z,1028.16
2022-11-14T06:33:13.271Z,1028.12
2022-11-14T06:35:40.000Z,1028.20
2022-11-14T06:38:06.745Z,1028.19
2022-11-14T06:40:34.853Z,1028.28
2022-11-14T06:43:01.608Z,1028.27
2022-11-14T06:45:28.388Z,1028.23
2022-11-14T06:47:59.172Z,1028.34
2022-11-14T06:50:26.338Z,1028.25
2022-11-14T06:52:53.062Z,1028.35
2022-11-14T06:55:25.097Z,1028.27
2022-11-14T06:57:54.976Z,1028.27
2022-11-14T07:00:22.382Z,1028.22
2022-11-14T07:02:49.525Z,1028.24
2022-11-14T07:05:17.349Z,1028.30
2022-11-14T07:07:44.797Z,1028.29
2022-11-14T07:10:12.001Z,1028.36
2022-11-14T07:12:38.926Z,1028.36
2022-11-14T07:15:08.537Z,1028.40
2022-11-14T07:17:35.688Z,1028.46
2022-11-14T07:20:02.563Z,1028.41
2022-11-14T07:22:30.552Z,1028.40
2022-11-14T07:24:57.268Z,1028.30
2022-11-14T07:27:24.639Z,1028.37
2022-11-14T07:29:51.383Z,1028.34
2022-11-14T07:32:20.630Z,1028.36
2022-11-14T07:34:49.983Z,1028.39
2022-11-14T07:37:16.975Z,1028.25
2022-11-14T07:39:45.808Z,1028.26
2022-11-14T07:42:12.802Z,1028.26
2022-11-14T07:44:42.158Z,1028.25
2022-11-14T07:47:09.313Z,1028.17
2022-11-14T07:49:40.089Z,1028.13
2022-11-14T07:52:08.013Z,1028.14
2022-11-14T07:54:35.139Z,1028.14
2022-11-14T07:57:02.240Z,1028.10
2022-11-14T07:59:31.579Z,1028.18
2022-11-14T08:01:58.562Z,1028.09
2022-11-14T08:04:25.502Z,1028.22
2022-11-14T08:06:53.936Z,1028.13
2022-11-14T08:09:21.016Z,1028.30
2022-11-14T08:11:47.855Z,1028.20
2022-11-14T08:14:15.302Z,1028.09
2022-11-14T08:16:43.273Z,1028.08
2022-11-14T08:19:10.726Z,1028.03
2022-11-14T08:21:43.540Z,1028.08
2022-11-14T08:24:12.566Z,1028.06
2022-11-14T08:26:39.708Z,1027.99
2022-11-14T08:29:06.658Z,1027.88
2022-11-14T08:31:35.814Z,1027.81
2022-11-14T08:34:03.029Z,1027.80
2022-11-14T08:36:32.033Z,1027.72
2022-11-14T08:39:05.187Z,1027.67
2022-11-14T08:41:33.637Z,1027.69
2022-11-14T08:44:01.999Z,1027.69
2022-11-14T08:46:30.015Z,1027.55
2022-11-14T08:48:57.411Z,1027.64
2022-11-14T08:51:24.444Z,1027.66
2022-11-14T08:53:55.836Z,1027.72
2022-11-14T08:56:22.731Z,1027.72
2022-11-14T08:58:52.552Z,1027.62
2022-11-14T09:01:19.601Z,1027.45
2022-11-14T09:03:46.848Z,1027.35
2022-11-14T09:06:13.734Z,1027.01
2022-11-14T09:08:40.690Z,1026.84
2022-11-14T09:11:09.948Z,1026.83
2022-11-14T09:13:39.394Z,1026.89
2022-11-14T09:16:08.585Z,1026.91
2022-11-14T09:18:36.570Z,1026.93
2022-11-14T09:21:05.178Z,1027.07
2022-11-14T09:23:32.728Z,1027.11
2022-11-14T09:26:04.616Z,1027.21
2022-11-14T09:28:33.705Z,1027.05
2022-11-14T09:31:01.369Z,1027.09
2022-11-14T09:33:30.601Z,1027.01
2022-11-14T09:35:58.565Z,1026.98
2022-11-14T09:38:25.982Z,1027.16
2022-11-14T09:41:04.706Z,1026.97
2022-11-14T09:43:47.528Z,1026.84
2022-11-14T09:46:19.868Z,1026.93
2022-11-14T09:48:48.868Z,1026.81
2022-11-14T09:51:19.524Z,1026.68
2022-11-14T09:53:53.985Z,1026.47
2022-11-14T09:56:24.862Z,1026.34
2022-11-14T09:58:52.230Z,1026.22
2022-11-14T10:01:36.511Z,1026.27
2022-11-14T10:04:15.782Z,1026.50
2022-11-14T10:06:56.756Z,1026.64
2022-11-14T10:09:39.122Z,1026.49
2022-11-14T10:12:14.705Z,1026.50
2022-11-14T10:15:01.191Z,1026.30
2022-11-14T10:18:00.674Z,1026.15
2022-11-14T10:20:36.434Z,1026.49
2022-11-14T10:23:18.769Z,1026.69
2022-11-14T10:25:54.046Z,1026.62
2022-11-14T10:28:40.001Z,1026.54
2022-11-14T10:31:16.522Z,1026.49
2022-11-14T10:33:53.248Z,1026.48
2022-11-14T10:36:32.663Z,1026.43
2022-11-14T10:39:07.912Z,1026.46
2022-11-14T10:41:56.306Z,1026.32
2022-11-14T10:44:28.262Z,1025.95
2022-11-14T10:46:58.839Z,1025.95
2022-11-14T10:49:26.862Z,1025.78
2022-11-14T10:51:59.982Z,1025.54
2022-11-14T10:54:33.933Z,1025.40
2022-11-14T10:57:00.762Z,1025.19
2022-11-14T10:59:27.694Z,1025.17
2022-11-14T11:01:57.483Z,1025.15
2022-11-14T11:04:31.841Z,1025.14
2022-11-14T11:07:17.296Z,1025.23
2022-11-14T11:09:58.989Z,1025.27
2022-11-14T11:12:42.946Z,1025.31
2022-11-14T11:15:17.036Z,1025.27
2022-11-14T11:17:56.297Z,1025.42
2022-11-14T11:20:30.918Z,1025.38
2022-11-14T11:23:18.831Z,1025.25
2022-11-14T11:25:45.592Z,1025.26
2022-11-14T11:28:14.762Z,1025.14
2022-11-14T11:30:55.505Z,1025.12
2022-11-14T11:33:27.396Z,1025.16
2022-11-14T11:35:57.464Z,1025.37
2022-11-14T11:38:32.872Z,1025.34
2022-11-14T11:41:04.233Z,1025.23
2022-11-14T11:43:40.235Z,1025.32
2022-11-14T11:46:16.489Z,1025.27
2022-11-14T11:48:48.279Z,1025.22
2022-11-14T11:51:19.971Z,1025.21
2022-11-14T11:53:56.061Z,1025.19
2022-11-14T11:56:27.192Z,1025.34
2022-11-14T11:59:04.501Z,1025.31
2022-11-14T12:01:31.578Z,1025.46
2022-11-14T12:04:01.668Z,1025.44
2022-11-14T12:06:35.696Z,1025.41
2022-11-14T12:09:12.804Z,1025.37
2022-11-14T12:11:45.452Z,1025.38
2022-11-14T12:14:31.878Z,1025.19
2022-11-14T12:17:12.315Z,1025.09
2022-11-14T12:19:50.983Z,1025.01
2022-11-14T12:22:42.273Z,1024.90
2022-11-14T12:25:32.945Z,1024.83
2022-11-14T12:28:15.492Z,1024.87
2022-11-14T12:30:47.059Z,1024.83
2022-11-14T12:33:22.706Z,1024.91
2022-11-14T12:35:53.157Z,1024.91
2022-11-14T12:38:21.360Z,1024.88
2022-11-14T12:40:55.380Z,1024.71
2022-11-14T12:43:37.003Z,1024.70
2022-11-14T12:46:08.784Z,1024.63
2022-11-14T12:48:37.595Z,1024.59
2022-11-14T12:51:29.553Z,1024.51
2022-11-14T12:53:57.881Z,1024.34
2022-11-14T12:56:54.189Z,1024.30
2022-11-14T12:59:54.362Z,1024.37
2022-11-14T13:02:52.021Z,1024.26
2022-11-14T13:05:43.205Z,1024.22
2022-11-14T13:08:28.594Z,1024.17
2022-11-14T13:10:55.401Z,1024.08
2022-11-14T13:13:24.484Z,1024.04
2022-11-14T13:15:53.248Z,1024.05
2022-11-14T13:18:23.201Z,1024.00
2022-11-14T13:21:02.047Z,1024.03
2022-11-14T13:23:54.149Z,1024.02
2022-11-14T13:26:52.340Z,1024.06
2022-11-14T13:29:55.704Z,1024.02
2022-11-14T13:33:02.307Z,1023.94
2022-11-14T13:35:48.747Z,1023.94
2022-11-14T13:38:49.953Z,1023.86
2022-11-14T13:42:00.358Z,1023.85
2022-11-14T13:45:03.750Z,1023.81
2022-11-14T13:47:55.401Z,1023.90
2022-11-14T13:50:29.794Z,1023.89
2022-11-14T13:52:59.489Z,1023.91
2022-11-14T13:55:39.061Z,1023.95
2022-11-14T13:58:21.536Z,1024.01
2022-11-14T14:01:03.964Z,1023.94
2022-11-14T14:03:48.690Z,1024.00
2022-11-14T14:06:31.343Z,1023.96
2022-11-14T14:09:15.246Z,1023.92
2022-11-14T14:11:59.139Z,1024.02
2022-11-14T14:14:52.114Z,1024.05
2022-11-14T14:17:27.606Z,1024.23
2022-11-14T14:20:05.200Z,1024.19
2022-11-14T14:22:42.800Z,1024.24
2022-11-14T14:25:21.775Z,1024.24
2022-11-14T14:28:00.513Z,1024.27
2022-11-14T14:30:27.664Z,1024.31
2022-11-14T14:33:10.908Z,1024.26
2022-11-14T14:35:40.745Z,1024.28
2022-11-14T14:38:12.702Z,1024.25
2022-11-14T14:40:42.582Z,1024.34
2022-11-14T14:43:23.952Z,1024.30
2022-11-14T14:45:57.054Z,1024.38
2022-11-14T14:48:27.948Z,1024.40
2022-11-14T14:50:56.939Z,1024.41
2022-11-14T14:53:26.318Z,1024.35
2022-11-14T14:55:57.233Z,1024.33
2022-11-14T14:58:26.774Z,1024.40
2022-11-14T15:00:58.290Z,1024.39
2022-11-14T15:03:38.387Z,1024.46
2022-11-14T15:06:17.296Z,1024.45
2022-11-14T15:11:27.348Z,1024.53
2022-11-14T15:14:00.836Z,1024.62
2022-11-14T15:16:29.336Z,1024.65
2022-11-14T15:18:59.445Z,1024.73
2022-11-14T15:21:28.040Z,1024.81
2022-11-14T15:24:03.866Z,1024.85
2022-11-14T15:26:32.132Z,1024.91
2022-11-14T15:29:09.856Z,1024.92
2022-11-14T15:31:37.322Z,1024.88
2022-11-14T15:34:20.834Z,1024.88
2022-11-14T15:37:07.128Z,1024.96
2022-11-14T15:39:34.817Z,1024.93
2022-11-14T15:42:29.341Z,1024.84
2022-11-14T15:44:56.825Z,1024.97
2022-11-14T15:47:25.354Z,1024.95
2022-11-14T15:49:58.760Z,1025.16
2022-11-14T15:52:30.441Z,1025.15
2022-11-14T15:54:57.703Z,1025.19
2022-11-14T15:57:26.072Z,1025.22
2022-11-14T15:59:53.504Z,1025.18
2022-11-14T16:02:25.418Z,1025.19
2022-11-14T16:04:54.587Z,1025.22
2022-11-14T16:07:22.519Z,1025.30
2022-11-14T16:09:50.490Z,1025.35
2022-11-14T16:12:17.779Z,1025.40
2022-11-14T16:14:46.321Z,1025.36
2022-11-14T16:17:20.316Z,1025.51
2022-11-14T16:19:47.213Z,1025.29
2022-11-14T16:22:18.643Z,1025.32
2022-11-14T16:24:48.976Z,1025.30
2022-11-14T16:27:32.955Z,1025.50
2022-11-14T16:30:02.493Z,1025.47
2022-11-14T16:32:30.851Z,1025.52
2022-11-14T16:34:58.112Z,1025.56
2022-11-14T16:37:55.698Z,1025.54
2022-11-14T16:40:25.347Z,1025.48
2022-11-14T16:42:56.793Z,1025.45
2022-11-14T16:45:27.177Z,1025.56
2022-11-14T16:47:59.433Z,1025.49
2022-11-14T16:50:29.035Z,1025.45
2022-11-14T16:52:56.373Z,1025.48
2022-11-14T16:55:26.771Z,1025.53
2022-11-14T16:58:02.313Z,1025.46
2022-11-14T17:00:29.793Z,1025.40
2022-11-14T17:03:01.294Z,1025.43
2022-11-14T17:05:28.504Z,1025.42
2022-11-14T17:07:56.221Z,1025.50
2022-11-14T17:10:23.291Z,1025.44
2022-11-14T17:12:52.481Z,1025.41
2022-11-14T17:15:22.580Z,1025.38
2022-11-14T17:17:53.252Z,1025.22
2022-11-14T17:20:22.059Z,1025.28
2022-11-14T17:22:48.982Z,1025.35
2022-11-14T17:25:17.151Z,1025.39
2022-11-14T17:27:44.118Z,1025.38
2022-11-14T17:30:11.838Z,1025.45
2022-11-14T17:32:38.920Z,1025.41
2022-11-14T17:35:06.590Z,1025.44
2022-11-14T17:37:35.020Z,1025.49
2022-11-14T17:40:01.766Z,1025.44
2022-11-14T17:42:28.680Z,1025.49
2022-11-14T17:44:55.622Z,1025.51
2022-11-14T17:47:22.449Z,1025.47
2022-11-14T17:49:51.546Z,1025.37
2022-11-14T17:52:18.575Z,1025.43
2022-11-14T17:54:46.844Z,1025.36
2022-11-14T17:57:13.897Z,1025.45
2022-11-14T17:59:40.649Z,1025.38
2022-11-14T18:02:13.172Z,1025.29
2022-11-14T18:04:40.060Z,1025.25
2022-11-14T18:07:07.020Z,1025.28
2022-11-14T18:09:33.774Z,1025.32
2022-11-14T18:12:02.139Z,1025.31
2022-11-14T18:14:28.971Z,1025.31
2022-11-14T18:17:12.434Z,1025.25
2022-11-14T18:19:39.949Z,1025.32
2022-11-14T18:22:06.847Z,1025.28
2022-11-14T18:24:33.672Z,1025.16
2022-11-14T18:27:01.816Z,1025.21
2022-11-14T18:29:32.263Z,1025.08
2022-11-14T18:31:58.991Z,1025.09
2022-11-14T18:34:25.940Z,1025.10
2022-11-14T18:36:52.739Z,1025.00
2022-11-14T18:39:20.705Z,1025.02
2022-11-14T18:41:47.427Z,1024.97
2022-11-14T18:44:15.719Z,1024.95
2022-11-14T18:46:42.491Z,1024.94
2022-11-14T18:49:09.390Z,1024.99
2022-11-14T18:51:36.410Z,1025.02
2022-11-14T18:54:03.720Z,1025.10
2022-11-14T18:56:30.754Z,1025.00
2022-11-14T18:58:57.552Z,1025.01
2022-11-14T19:01:27.100Z,1024.99
2022-11-14T19:03:56.709Z,1024.97
2022-11-14T19:06:23.856Z,1024.97
2022-11-14T19:08:50.914Z,1024.75
2022-11-14T19:11:18.658Z,1024.83
2022-11-14T19:13:45.546Z,1024.84
2022-11-14T19:16:12.449Z,1024.83
2022-11-14T19:18:40.599Z,1024.89
2022-11-14T19:21:07.649Z,1024.91
2022-11-14T19:23:34.802Z,1024.98
2022-11-14T19:26:03.043Z,1024.97
2022-11-14T19:28:30.338Z,1024.90
2022-11-14T19:31:02.097Z,1024.98
2022-11-14T19:33:29.173Z,1025.00
2022-11-14T19:35:58.120Z,1024.95
2022-11-14T19:38:25.039Z,1024.94
2022-11-14T19:40:51.891Z,1024.97
2022-11-14T19:43:18.866Z,1024.93
2022-11-14T19:45:45.687Z,1024.90
2022-11-14T19:48:13.855Z,1024.89
2022-11-14T19:50:40.892Z,1024.84
2022-11-14T19:53:09.120Z,1024.89
2022-11-14T19:55:35.963Z,1024.88
2022-11-14T19:58:02.769Z,1024.99
2022-11-14T20:00:29.534Z,1024.96
2022-11-14T20:02:56.398Z,1024.92
2022-11-14T20:05:23.275Z,1024.85
2022-11-14T20:07:51.278Z,1024.91
2022-11-14T20:10:19.526Z,1024.92
2022-11-14T20:12:46.490Z,1024.95
2022-11-14T20:15:13.431Z,1024.94
2022-11-14T20:17:40.458Z,1024.97
2022-11-14T20:20:08.407Z,1024.91
2022-11-14T20:22:35.380Z,1024.93
2022-11-14T20:25:05.270Z,1024.88
2022-11-14T20:27:36.353Z,1024.87
2022-11-14T20:30:03.783Z,1024.89
2022-11-14T20:32:30.888Z,1024.90
2022-11-14T20:34:57.982Z,1024.81
2022-11-14T20:37:24.837Z,1024.74
2022-11-14T20:39:51.757Z,1024.73
2022-11-14T20:42:18.574Z,1024.67
2022-11-14T20:44:47.037Z,1024.63
2022-11-14T20:47:13.937Z,1024.45
2022-11-14T20:49:40.858Z,1024.47
2022-11-14T20:52:07.678Z,1024.42
2022-11-14T20:54:35.665Z,1024.47
2022-11-14T20:57:02.499Z,1024.54
2022-11-14T20:59:29.622Z,1024.48
2022-11-14T21:01:57.960Z,1024.40
2022-11-14T21:04:24.901Z,1024.39
2022-11-14T21:06:55.665Z,1024.41
2022-11-14T21:09:22.494Z,1024.53
2022-11-14T21:11:50.317Z,1024.44
2022-11-14T21:14:17.054Z,1024.43
2022-11-14T21:16:45.035Z,1024.44
2022-11-14T21:19:13.326Z,1024.54
2022-11-14T21:21:40.254Z,1024.51
2022-11-14T21:24:07.629Z,1024.48
2022-11-14T21:26:38.320Z,1024.43
2022-11-14T21:29:06.929Z,1024.55
2022-11-14T21:31:35.897Z,1024.56
2022-11-14T21:34:04.882Z,1024.43
2022-11-14T21:36:50.954Z,1024.48
2022-11-14T21:39:18.057Z,1024.47
2022-11-14T21:41:45.927Z,1024.38
2022-11-14T21:44:14.574Z,1024.44
2022-11-14T21:46:42.231Z,1024.38
2022-11-14T21:49:09.275Z,1024.34
2022-11-14T21:51:37.447Z,1024.33
2022-11-14T21:54:04.503Z,1024.29
2022-11-14T21:56:32.882Z,1024.26
2022-11-14T21:59:00.963Z,1024.18
2022-11-14T22:01:27.761Z,1024.16
2022-11-14T22:03:56.031Z,1024.09
2022-11-14T22:06:23.582Z,1024.07
2022-11-14T22:08:54.451Z,1023.98
2022-11-14T22:11:21.883Z,1023.93
2022-11-14T22:13:49.702Z,1023.96
2022-11-14T22:16:16.625Z,1023.93
2022-11-14T22:18:43.642Z,1023.88
2022-11-14T22:21:10.599Z,1023.90
2022-11-14T22:23:37.554Z,1023.94
2022-11-14T22:26:06.132Z,1023.91
2022-11-14T22:28:33.091Z,1023.96
2022-11-14T22:31:04.537Z,1023.96
2022-11-14T22:33:32.180Z,1023.90
2022-11-14T22:36:04.251Z,1023.83
2022-11-14T22:38:31.375Z,1023.82
2022-11-14T22:41:00.587Z,1023.76
2022-11-14T22:43:30.378Z,1023.82
2022-11-14T22:45:58.530Z,1023.89
2022-11-14T22:48:26.427Z,1023.90
2022-11-14T22:51:00.147Z,1023.84
2022-11-14T22:53:28.287Z,1023.82
2022-11-14T22:55:55.809Z,1023.84
2022-11-14T22:58:22.650Z,1023.76
2022-11-14T23:00:51.609Z,1023.64
2022-11-14T23:03:20.566Z,1023.58
2022-11-14T23:05:48.373Z,1023.70
2022-11-14T23:08:16.959Z,1023.63
2022-11-14T23:10:44.516Z,1023.66
2022-11-14T23:13:11.994Z,1023.67
2022-11-14T23:15:45.452Z,1023.52
2022-11-14T23:18:14.164Z,1023.59
2022-11-14T23:20:41.103Z,1023.67
2022-11-14T23:23:10.079Z,1023.56
2022-11-14T23:25:36.968Z,1023.55
2022-11-14T23:28:05.194Z,1023.42
2022-11-14T23:30:34.097Z,1023.48
2022-11-14T23:33:01.113Z,1023.43
2022-11-14T23:35:29.268Z,1023.42
2022-11-14T23:37:56.231Z,1023.39
2022-11-14T23:40:22.987Z,1023.24
2022-11-14T23:42:49.846Z,1023.26
2022-11-14T23:45:16.915Z,1023.19
2022-11-14T23:47:43.754Z,1023.16
2022-11-14T23:50:10.506Z,1023.10
2022-11-14T23:52:38.926Z,1023.24
2022-11-14T23:55:06.021Z,1023.21
2022-11-14T23:57:33.090Z,1023.15
2022-11-14T23:59:59.877Z,1023.16
